Time;durP1;ratioP1;P1;durP2;ratioP2;P2;SDS_P1;SDS_P2;PMS_P1;PMS_P2;Temp;Humidity;BMP_temperature;BMP_pressure;BME280_temperature;BME280_humidity;BME280_pressure;Samples;Min_cycle;Max_cycle;Signal;HPM_P1;HPM_P2
2021/10/24 00:01:53;;;;;;;0.47;0.30;;;20.90;34.00;21.10;94676.00;;;;10440857;28;45368;-60
2021/10/24 00:06:53;;;;;;;0.55;0.28;;;20.90;34.00;21.10;94662.00;;;;10455476;28;46912;-59
2021/10/24 00:11:54;;;;;;;0.70;0.40;;;20.90;33.90;21.10;94672.00;;;;10455667;28;46421;-60
2021/10/24 00:16:56;;;;;;;0.73;0.30;;;20.90;33.90;21.10;94669.00;;;;10439782;28;45734;-59
2021/10/24 00:21:57;;;;;;;0.38;0.30;;;20.90;33.90;21.10;94651.00;;;;10456531;28;46700;-60
2021/10/24 00:26:57;;;;;;;0.80;0.30;;;20.90;33.90;21.10;94670.00;;;;10440573;28;45585;-60
2021/10/24 00:31:58;;;;;;;0.60;0.30;;;20.90;33.90;21.10;94663.00;;;;10456112;28;46729;-60
2021/10/24 00:36:59;;;;;;;0.30;0.20;;;20.90;33.90;21.10;94658.00;;;;10455650;28;47262;-60
2021/10/24 00:42:00;;;;;;;0.47;0.30;;;20.90;33.90;21.10;94649.00;;;;10439953;28;45372;-59
2021/10/24 00:47:05;;;;;;;0.30;0.20;;;20.90;33.80;21.10;94653.00;;;;10455190;28;45389;-60
2021/10/24 00:52:06;;;;;;;1.02;0.40;;;20.90;33.80;21.10;94654.00;;;;10455704;28;46000;-59
2021/10/24 00:57:07;;;;;;;0.93;0.32;;;20.90;33.70;21.10;94654.00;;;;10454601;28;46931;-60
2021/10/24 01:02:08;;;;;;;0.43;0.30;;;20.90;33.80;21.10;94657.00;;;;10433123;28;45453;-60
2021/10/24 01:07:08;;;;;;;0.63;0.32;;;20.90;33.70;21.00;94643.00;;;;10434120;28;47278;-60
2021/10/24 01:12:09;;;;;;;0.68;0.30;;;20.90;33.70;21.00;94642.00;;;;10453637;28;45651;-60
2021/10/24 01:17:10;;;;;;;0.77;0.30;;;20.90;33.70;21.00;94644.00;;;;10452744;28;46632;-59
2021/10/24 01:22:11;;;;;;;0.43;0.30;;;20.90;33.60;21.00;94636.00;;;;10436356;28;48310;-60
2021/10/24 01:27:11;;;;;;;0.60;0.30;;;20.90;33.70;21.00;94644.00;;;;10452561;28;48056;-60
2021/10/24 01:32:12;;;;;;;0.40;0.28;;;20.90;33.60;21.00;94641.00;;;;10453473;28;45592;-60
2021/10/24 01:37:15;;;;;;;0.22;0.20;;;20.90;33.60;21.00;94637.00;;;;10437577;28;45565;-59
2021/10/24 01:42:15;;;;;;;0.63;0.30;;;20.90;33.60;21.00;94633.00;;;;10438533;28;46649;-59
2021/10/24 01:47:16;;;;;;;0.77;0.30;;;20.90;33.60;21.00;94615.00;;;;10434839;28;45522;-59
2021/10/24 01:52:17;;;;;;;0.50;0.30;;;20.80;33.50;21.00;94632.00;;;;10394676;28;45420;-60
2021/10/24 01:57:18;;;;;;;1.10;0.30;;;20.80;33.50;21.00;94627.00;;;;10394583;28;45248;-60
2021/10/24 02:02:18;;;;;;;0.40;0.10;;;20.80;33.50;21.00;94634.00;;;;10393916;28;45349;-60
2021/10/24 02:07:19;;;;;;;0.52;0.30;;;20.80;33.40;20.90;94613.00;;;;10393360;28;45494;-60
2021/10/24 02:12:20;;;;;;;0.40;0.30;;;20.80;33.30;21.00;94604.00;;;;10394598;28;45374;-60
2021/10/24 02:17:21;;;;;;;0.85;0.30;;;20.80;33.40;21.00;94615.00;;;;10392032;28;47131;-60
2021/10/24 02:22:22;;;;;;;0.50;0.22;;;20.80;34.00;21.00;94614.00;;;;10393662;28;47072;-60
2021/10/24 02:27:23;;;;;;;0.25;0.17;;;20.80;33.30;21.00;94614.00;;;;10392545;28;45337;-60
2021/10/24 02:32:24;;;;;;;0.70;0.22;;;20.80;33.30;20.90;94614.00;;;;10392743;28;47094;-60
2021/10/24 02:37:25;;;;;;;0.93;0.30;;;20.80;33.20;20.90;94608.00;;;;10392350;28;45358;-60
2021/10/24 02:42:26;;;;;;;1.55;0.40;;;20.80;33.20;20.90;94604.00;;;;10392390;28;47283;-60
2021/10/24 02:47:27;;;;;;;0.40;0.22;;;20.80;33.10;20.90;94608.00;;;;10396831;28;45185;-60
2021/10/24 02:52:27;;;;;;;0.40;0.30;;;20.80;33.30;20.90;94609.00;;;;10446025;28;46120;-64
2021/10/24 02:57:28;;;;;;;0.73;0.40;;;20.80;33.20;20.90;94611.00;;;;10392251;28;45357;-60
2021/10/24 03:02:29;;;;;;;0.65;0.43;;;20.80;33.10;20.90;94600.00;;;;10394133;28;45481;-59
2021/10/24 03:07:30;;;;;;;0.43;0.30;;;20.80;33.00;20.90;94614.00;;;;10375003;28;47068;-60
2021/10/24 03:12:31;;;;;;;2.85;0.40;;;20.80;33.10;20.90;94600.00;;;;10392948;28;45262;-60
2021/10/24 03:17:32;;;;;;;0.95;0.20;;;20.80;33.10;20.90;94601.00;;;;10390851;28;46620;-59
2021/10/24 03:22:33;;;;;;;0.57;0.32;;;20.80;33.10;20.90;94601.00;;;;10391783;28;45324;-60
2021/10/24 03:27:34;;;;;;;0.38;0.30;;;20.80;33.00;20.90;94597.00;;;;10392175;28;46480;-60
2021/10/24 03:32:34;;;;;;;0.80;0.40;;;20.80;33.10;20.90;94593.00;;;;10393009;28;45152;-60
2021/10/24 03:37:35;;;;;;;0.70;0.40;;;20.70;32.90;20.90;94605.00;;;;10392564;28;45211;-59
2021/10/24 03:42:36;;;;;;;0.40;0.30;;;20.80;33.00;20.90;94604.00;;;;10392365;28;45593;-59
2021/10/24 03:47:37;;;;;;;0.98;0.25;;;20.80;32.90;20.90;94610.00;;;;10391340;28;45444;-60
2021/10/24 03:52:37;;;;;;;0.30;0.30;;;20.80;33.00;20.90;94612.00;;;;10397709;28;45210;-60
2021/10/24 03:57:39;;;;;;;0.40;0.30;;;20.80;32.90;20.90;94617.00;;;;10433364;28;45297;-60
2021/10/24 04:03:01;;;;;;;0.20;0.20;;;20.70;32.80;20.90;94605.00;;;;10449160;28;45209;-60
2021/10/24 04:08:03;;;;;;;0.70;0.30;;;20.80;32.90;20.90;94607.00;;;;10448179;28;46086;-60
2021/10/24 04:13:04;;;;;;;1.10;0.45;;;20.70;32.80;20.90;94609.00;;;;10448637;28;45390;-59
2021/10/24 04:18:04;;;;;;;0.80;0.30;;;20.70;32.90;20.80;94627.00;;;;10433396;28;46474;-60
2021/10/24 04:23:05;;;;;;;0.52;0.30;;;20.70;32.70;20.80;94627.00;;;;10433179;28;45158;-60
2021/10/24 04:28:06;;;;;;;0.38;0.20;;;20.70;32.70;20.80;94617.00;;;;10448463;28;45346;-60
2021/10/24 04:33:06;;;;;;;0.57;0.30;;;20.70;32.80;20.80;94634.00;;;;10447836;28;46741;-60
2021/10/24 04:38:07;;;;;;;0.52;0.30;;;20.70;32.70;20.90;94641.00;;;;10448245;28;45382;-60
2021/10/24 04:43:17;;;;;;;0.75;0.32;;;20.70;32.70;20.80;94616.00;;;;10454300;28;48369;-59
2021/10/24 04:48:17;;;;;;;0.43;0.20;;;20.70;32.70;20.80;94623.00;;;;10443044;28;47433;-60
2021/10/24 04:53:19;;;;;;;0.28;0.28;;;20.70;32.60;20.80;94623.00;;;;10407836;28;45145;-60
2021/10/24 04:58:19;;;;;;;0.40;0.30;;;20.70;32.70;20.80;94606.00;;;;10454236;28;45538;-60
2021/10/24 05:03:20;;;;;;;0.50;0.40;;;20.70;32.70;20.80;94635.00;;;;10454820;28;45320;-60
2021/10/24 05:08:21;;;;;;;0.40;0.30;;;20.70;32.70;20.80;94623.00;;;;10453769;28;45196;-60
2021/10/24 05:13:21;;;;;;;0.30;0.30;;;20.70;32.60;20.80;94617.00;;;;10453968;28;45252;-60
2021/10/24 05:18:22;;;;;;;0.32;0.20;;;20.70;32.60;20.80;94613.00;;;;10453347;28;46939;-59
2021/10/24 05:23:24;;;;;;;0.68;0.30;;;20.70;32.60;20.80;94622.00;;;;10453174;28;48031;-60
2021/10/24 05:28:25;;;;;;;0.25;0.25;;;20.70;32.70;20.80;94626.00;;;;10452915;28;45300;-59
2021/10/24 05:33:25;;;;;;;0.98;0.30;;;20.70;32.60;20.80;94633.00;;;;10453495;28;46835;-60
2021/10/24 05:38:26;;;;;;;0.40;0.25;;;20.70;32.60;20.80;94620.00;;;;10453453;28;47005;-59
2021/10/24 05:43:27;;;;;;;0.30;0.30;;;20.70;33.40;20.80;94626.00;;;;10453971;28;47070;-61
2021/10/24 05:48:28;;;;;;;0.63;0.30;;;20.70;32.70;20.80;94636.00;;;;10440834;28;46088;-61
2021/10/24 05:53:29;;;;;;;1.05;0.30;;;20.70;32.70;20.80;94619.00;;;;10394475;28;45492;-60
2021/10/24 05:58:29;;;;;;;0.95;0.30;;;20.70;32.70;20.80;94630.00;;;;10395521;28;45510;-59
2021/10/24 06:03:30;;;;;;;0.40;0.20;;;20.70;33.50;20.80;94638.00;;;;10395778;28;45163;-59
2021/10/24 06:08:32;;;;;;;0.32;0.22;;;20.70;32.70;20.80;94637.00;;;;10393248;28;45574;-59
2021/10/24 06:13:32;;;;;;;0.40;0.30;;;20.70;32.70;20.80;94633.00;;;;10394110;28;46340;-59
2021/10/24 06:18:33;;;;;;;0.93;0.40;;;20.70;32.70;20.80;94649.00;;;;10394845;28;45633;-59
2021/10/24 06:23:34;;;;;;;0.68;0.30;;;20.70;32.80;20.80;94638.00;;;;10394772;28;46643;-60
2021/10/24 06:28:35;;;;;;;0.60;0.30;;;20.70;32.80;20.80;94660.00;;;;10392769;28;45674;-60
2021/10/24 06:33:36;;;;;;;0.40;0.30;;;20.70;32.90;20.80;94658.00;;;;10386445;28;47154;-60
2021/10/24 06:38:37;;;;;;;0.50;0.40;;;20.60;33.40;20.80;94658.00;;;;10360183;28;45577;-60
2021/10/24 06:43:37;;;;;;;0.57;0.35;;;20.70;32.80;20.80;94663.00;;;;10381065;28;47061;-59
2021/10/24 06:48:38;;;;;;;0.95;0.50;;;20.70;32.90;20.80;94669.00;;;;10390908;28;45430;-60
2021/10/24 06:53:39;;;;;;;0.40;0.30;;;20.60;32.80;20.80;94670.00;;;;10376991;28;48280;-60
2021/10/24 06:58:39;;;;;;;0.32;0.22;;;20.70;33.00;20.80;94674.00;;;;10394908;28;46134;-61
2021/10/24 07:03:40;;;;;;;0.30;0.30;;;20.70;32.90;20.80;94670.00;;;;10393284;28;45497;-61
2021/10/24 07:08:41;;;;;;;0.47;0.30;;;20.70;33.00;20.80;94670.00;;;;10394605;28;45408;-60
2021/10/24 07:13:41;;;;;;;0.50;0.45;;;20.70;33.00;20.80;94671.00;;;;10393328;28;45347;-59
2021/10/24 07:18:42;;;;;;;0.82;0.32;;;20.70;33.00;20.80;94674.00;;;;10393746;28;45528;-59
2021/10/24 07:23:43;;;;;;;0.20;0.20;;;20.60;33.00;20.80;94685.00;;;;10392957;28;45492;-59
2021/10/24 07:28:43;;;;;;;1.05;0.40;;;20.60;33.10;20.80;94680.00;;;;10394180;28;45378;-60
2021/10/24 07:33:44;;;;;;;0.50;0.40;;;20.60;33.10;20.80;94690.00;;;;10392577;28;45244;-59
2021/10/24 07:38:45;;;;;;;0.85;0.35;;;20.60;33.10;20.80;94700.00;;;;10390727;28;45572;-59
2021/10/24 07:43:46;;;;;;;1.38;0.50;;;20.70;33.20;20.80;94689.00;;;;10391024;28;45241;-60
2021/10/24 07:48:47;;;;;;;3.20;1.80;;;20.60;33.00;20.10;94680.00;;;;10389453;28;45214;-61
2021/10/24 07:53:48;;;;;;;1.90;1.00;;;20.40;30.10;20.50;94697.00;;;;10390534;28;45129;-63
2021/10/24 07:58:48;;;;;;;3.28;0.80;;;20.40;31.90;20.60;94695.00;;;;10390487;28;46486;-64
2021/10/24 08:03:51;;;;;;;1.63;0.77;;;20.40;32.60;20.70;94699.00;;;;10378853;28;45222;-64
2021/10/24 08:08:52;;;;;;;1.35;0.70;;;20.50;33.00;20.60;94689.00;;;;10406179;28;45210;-66
2021/10/24 08:13:53;;;;;;;1.10;0.50;;;20.50;33.10;20.70;94698.00;;;;10409437;28;45564;-65
2021/10/24 08:18:54;;;;;;;1.67;0.68;;;20.50;33.20;20.70;94704.00;;;;10414418;28;46767;-67
2021/10/24 08:23:55;;;;;;;1.20;0.60;;;20.50;33.70;20.70;94695.00;;;;10414030;28;46965;-66
2021/10/24 08:28:57;;;;;;;1.13;0.52;;;20.60;33.40;20.80;94693.00;;;;10414061;28;45311;-64
2021/10/24 08:34:00;;;;;;;1.73;0.77;;;20.60;33.50;20.80;94691.00;;;;10414055;28;47322;-63
2021/10/24 08:39:01;;;;;;;1.17;0.60;;;20.70;33.60;20.80;94694.00;;;;10413880;28;45425;-61
2021/10/24 08:44:03;;;;;;;0.98;0.60;;;20.70;33.50;20.80;94688.00;;;;10397774;28;45413;-66
2021/10/24 08:49:04;;;;;;;2.35;0.60;;;20.70;33.60;20.80;94708.00;;;;10413688;28;45684;-66
2021/10/24 08:54:07;;;;;;;0.93;0.60;;;20.70;33.60;20.90;94707.00;;;;10378843;28;47201;-66
2021/10/24 08:59:08;;;;;;;1.60;0.60;;;20.70;33.60;20.90;94679.00;;;;10396142;28;45389;-67
2021/10/24 09:04:13;;;;;;;0.85;0.50;;;20.70;33.50;20.90;94695.00;;;;10396067;28;45446;-65
2021/10/24 09:09:32;;;;;;;1.70;0.68;;;20.80;33.60;20.90;94680.00;;;;10395532;28;45293;-65
2021/10/24 09:14:53;;;;;;;1.42;0.60;;;20.80;33.30;20.90;94676.00;;;;10396371;28;45231;-65
2021/10/24 09:20:00;;;;;;;0.88;0.65;;;20.80;33.40;20.90;94673.00;;;;10395830;28;46868;-65
2021/10/24 09:25:01;;;;;;;2.40;0.80;;;20.80;33.40;20.90;94673.00;;;;10393336;28;45276;-64
2021/10/24 09:30:12;;;;;;;2.00;0.77;;;20.80;33.50;20.90;94669.00;;;;10411953;28;46915;-66
2021/10/24 09:35:14;;;;;;;0.95;0.55;;;20.80;33.50;20.90;94681.00;;;;10395522;28;47432;-63
2021/10/24 09:40:25;;;;;;;1.60;0.60;;;20.80;33.50;20.90;94669.00;;;;10412292;28;47045;-68
2021/10/24 09:45:26;;;;;;;1.52;0.70;;;20.80;33.50;20.90;94681.00;;;;10411110;28;47241;-68
2021/10/24 09:50:46;;;;;;;0.80;0.50;;;20.80;33.40;20.90;94669.00;;;;10387362;28;48160;-70
2021/10/24 09:56:13;;;;;;;1.38;0.70;;;20.80;33.60;21.00;94665.00;;;;10386184;28;47020;-67
2021/10/24 10:01:19;;;;;;;1.48;0.57;;;20.80;33.50;20.90;94680.00;;;;10385559;28;45220;-67
2021/10/24 10:06:23;;;;;;;1.67;0.67;;;20.80;33.50;21.00;94664.00;;;;10395148;28;45720;-66
2021/10/24 10:11:52;;;;;;;0.95;0.57;;;20.80;33.70;21.00;94668.00;;;;10394577;28;47089;-67
2021/10/24 10:17:01;;;;;;;1.50;0.70;;;20.90;33.80;21.10;94677.00;;;;10407783;28;47412;-65
2021/10/24 10:22:25;;;;;;;1.75;0.80;;;20.90;33.90;21.10;94667.00;;;;10394745;28;45442;-62
2021/10/24 10:27:35;;;;;;;1.05;0.50;;;20.90;34.00;21.10;94674.00;;;;10393017;28;45175;-61
2021/10/24 10:32:49;;;;;;;0.75;0.50;;;21.00;33.90;21.10;94670.00;;;;10394549;28;46132;-61
2021/10/24 10:37:55;;;;;;;0.90;0.68;;;21.00;33.90;21.20;94671.00;;;;10392047;28;45208;-61
2021/10/24 10:43:03;;;;;;;1.07;0.50;;;21.00;33.90;21.20;94666.00;;;;10392488;28;47023;-62
2021/10/24 10:48:17;;;;;;;1.60;0.50;;;21.10;33.90;21.20;94659.00;;;;10402140;28;45179;-61
2021/10/24 10:53:30;;;;;;;0.90;0.50;;;21.10;33.90;21.20;94652.00;;;;10404722;28;45392;-67
2021/10/24 10:58:38;;;;;;;1.75;0.50;;;21.10;34.00;21.30;94654.00;;;;10392073;28;45456;-66
2021/10/24 11:03:48;;;;;;;1.13;0.60;;;21.10;34.20;21.30;94636.00;;;;10392221;28;45392;-60
2021/10/24 11:08:52;;;;;;;0.95;0.57;;;21.10;34.20;21.30;94643.00;;;;10408451;28;45370;-60
2021/10/24 11:13:53;;;;;;;1.67;0.60;;;21.10;34.10;21.30;94642.00;;;;10392322;28;45385;-60
2021/10/24 11:18:54;;;;;;;1.27;0.63;;;21.20;34.10;21.30;94627.00;;;;10393110;28;45596;-61
2021/10/24 11:23:57;;;;;;;1.05;0.60;;;21.20;34.40;21.40;94617.00;;;;10392104;28;46361;-61
2021/10/24 11:28:58;;;;;;;2.20;0.55;;;21.20;34.40;21.50;94614.00;;;;10407916;28;45334;-60
2021/10/24 11:33:59;;;;;;;1.13;0.47;;;21.30;34.40;21.50;94603.00;;;;10407464;28;46917;-61
2021/10/24 11:39:03;;;;;;;1.00;0.47;;;21.30;34.40;21.60;94602.00;;;;10407363;28;45458;-60
2021/10/24 11:44:08;;;;;;;1.67;0.50;;;21.40;34.50;21.60;94603.00;;;;10407006;28;46371;-60
2021/10/24 11:49:08;;;;;;;0.88;0.50;;;21.40;34.50;21.60;94593.00;;;;10407350;28;46580;-60
2021/10/24 11:54:09;;;;;;;0.80;0.50;;;21.40;34.60;21.70;94602.00;;;;10426544;28;46253;-62
2021/10/24 12:04:14;;;;;;;1.25;0.47;;;21.50;34.60;21.70;94588.00;;;;10449474;28;45342;-60
2021/10/24 12:09:25;;;;;;;0.98;0.50;;;21.60;34.60;21.80;94585.00;;;;10433320;28;45500;-61
2021/10/24 12:14:25;;;;;;;1.00;0.47;;;21.60;34.70;21.80;94595.00;;;;10447775;28;47254;-60
2021/10/24 12:19:34;;;;;;;1.33;0.70;;;21.60;34.60;21.80;94592.00;;;;10448703;28;45600;-61
2021/10/24 12:24:50;;;;;;;1.90;0.60;;;21.60;34.70;21.90;94589.00;;;;10447513;28;45206;-60
2021/10/24 12:30:09;;;;;;;0.97;0.50;;;21.70;34.70;21.90;94593.00;;;;10430908;28;45240;-60
2021/10/24 12:35:11;;;;;;;0.82;0.40;;;21.70;34.70;21.90;94592.00;;;;10448170;28;46958;-61
2021/10/24 12:40:32;;;;;;;0.68;0.40;;;21.70;34.80;21.90;94580.00;;;;10447420;28;45279;-60
2021/10/24 12:45:44;;;;;;;1.15;0.50;;;21.70;34.80;21.90;94580.00;;;;10431370;28;45352;-60
2021/10/24 12:50:45;;;;;;;0.98;0.43;;;21.70;35.40;21.90;94573.00;;;;10400458;28;45176;-60
2021/10/24 12:56:06;;;;;;;0.75;0.40;;;21.70;34.70;21.90;94568.00;;;;10403969;28;48191;-60
2021/10/24 13:01:18;;;;;;;0.85;0.52;;;21.80;34.80;21.90;94539.00;;;;10432947;28;45200;-61
2021/10/24 13:06:21;;;;;;;0.80;0.50;;;21.70;34.70;21.90;94537.00;;;;10453827;28;47492;-60
2021/10/24 13:11:26;;;;;;;0.50;0.45;;;21.80;34.80;21.90;94532.00;;;;10453995;28;45846;-61
2021/10/24 13:16:27;;;;;;;0.60;0.40;;;21.80;34.80;21.90;94549.00;;;;10454155;28;46448;-60
2021/10/24 13:26:41;;;;;;;1.65;0.40;;;21.80;34.80;22.00;94549.00;;;;10453317;28;45237;-60
2021/10/24 13:31:42;;;;;;;0.65;0.40;;;21.80;34.90;22.00;94534.00;;;;10452808;28;45357;-61
2021/10/24 13:36:43;;;;;;;0.50;0.50;;;21.80;34.80;22.00;94524.00;;;;10447339;28;45576;-60
2021/10/24 13:41:44;;;;;;;2.53;0.40;;;21.80;34.90;21.90;94511.00;;;;10437306;28;46473;-61
2021/10/24 13:46:45;;;;;;;1.13;0.52;;;21.80;34.90;21.90;94516.00;;;;10436761;28;45658;-60
2021/10/24 13:51:45;;;;;;;0.70;0.50;;;21.80;34.80;22.00;94518.00;;;;10453564;28;45201;-60
2021/10/24 13:56:46;;;;;;;0.40;0.32;;;21.80;34.80;22.00;94516.00;;;;10451764;28;46144;-62
2021/10/24 14:01:47;;;;;;;0.52;0.40;;;21.80;34.90;22.00;94514.00;;;;10436440;28;47015;-60
2021/10/24 14:06:48;;;;;;;1.27;0.47;;;21.80;34.90;21.90;94498.00;;;;10437177;28;45234;-60
2021/10/24 14:11:49;;;;;;;0.60;0.30;;;21.80;34.80;22.00;94510.00;;;;10452823;28;46876;-60
2021/10/24 14:16:50;;;;;;;0.30;0.30;;;21.80;34.90;22.00;94511.00;;;;10453179;28;46710;-60
2021/10/24 14:21:50;;;;;;;0.60;0.40;;;21.80;34.90;22.00;94495.00;;;;10438128;28;45395;-60
2021/10/24 14:26:51;;;;;;;1.25;0.32;;;21.80;34.80;22.00;94499.00;;;;10452169;28;45529;-61
2021/10/24 14:31:53;;;;;;;0.47;0.30;;;21.80;34.90;22.00;94495.00;;;;10492687;22;47238;-62
2021/10/24 14:36:54;;;;;;;0.55;0.30;;;21.80;34.90;22.00;94498.00;;;;10450628;28;45504;-61
2021/10/24 14:41:55;;;;;;;0.35;0.35;;;21.80;34.90;22.00;94490.00;;;;10462353;28;45254;-63
2021/10/24 14:46:56;;;;;;;0.75;0.50;;;21.80;34.90;22.00;94483.00;;;;10477472;28;45324;-61
2021/10/24 14:51:57;;;;;;;0.50;0.30;;;21.80;34.90;22.00;94485.00;;;;10476237;28;45171;-61
2021/10/24 14:56:57;;;;;;;0.52;0.30;;;21.80;34.90;22.00;94488.00;;;;10476223;28;45207;-62
2021/10/24 15:01:58;;;;;;;1.42;0.40;;;21.80;34.90;22.00;94479.00;;;;10476169;28;45544;-61
2021/10/24 15:06:59;;;;;;;0.52;0.32;;;21.80;34.90;22.00;94478.00;;;;10474119;28;45601;-62
2021/10/24 15:11:59;;;;;;;0.43;0.40;;;21.80;35.00;22.00;94479.00;;;;10473370;28;46475;-63
2021/10/24 15:17:03;;;;;;;0.82;0.43;;;21.80;35.00;22.00;94489.00;;;;10474801;28;46234;-61
2021/10/24 15:22:04;;;;;;;1.45;0.50;;;21.80;35.00;22.00;94482.00;;;;10475861;28;45431;-63
2021/10/24 15:27:05;;;;;;;0.70;0.43;;;21.80;35.00;22.00;94469.00;;;;10474460;28;46510;-63
2021/10/24 15:32:07;;;;;;;0.47;0.40;;;21.80;35.00;22.00;94478.00;;;;10469438;28;48239;-61
2021/10/24 15:37:08;;;;;;;0.50;0.30;;;21.90;35.00;22.00;94474.00;;;;10476271;28;45406;-62
2021/10/24 15:42:09;;;;;;;0.80;0.50;;;21.80;35.00;22.00;94483.00;;;;10440310;28;46894;-62
2021/10/24 15:47:09;;;;;;;0.80;0.30;;;21.80;35.00;22.00;94471.00;;;;10434351;28;45349;-62
2021/10/24 15:52:11;;;;;;;0.85;0.60;;;21.80;35.00;21.80;94487.00;;;;10434060;28;45346;-62
2021/10/24 15:57:11;;;;;;;1.15;0.60;;;21.80;34.80;21.70;94489.00;;;;10433492;28;45327;-62
2021/10/24 16:02:12;;;;;;;2.47;0.63;;;21.70;34.60;21.70;94485.00;;;;10415283;28;47036;-62
2021/10/24 16:07:13;;;;;;;1.95;0.70;;;21.70;34.60;21.70;94484.00;;;;10416183;28;46711;-61
2021/10/24 16:12:13;;;;;;;1.92;0.60;;;21.70;34.50;21.70;94494.00;;;;10390482;28;45193;-62
2021/10/24 16:17:14;;;;;;;1.05;0.70;;;21.70;34.50;21.70;94494.00;;;;10390347;28;46550;-62
2021/10/24 16:22:15;;;;;;;0.80;0.60;;;21.70;34.50;21.70;94484.00;;;;10391487;28;45465;-61
2021/10/24 16:27:16;;;;;;;1.13;0.60;;;21.60;34.50;21.70;94499.00;;;;10390137;28;45157;-62
2021/10/24 16:32:16;;;;;;;0.95;0.70;;;21.70;34.50;21.70;94494.00;;;;10389472;28;45610;-62
2021/10/24 16:37:17;;;;;;;1.02;0.70;;;21.60;34.50;21.60;94485.00;;;;10403782;28;45372;-62
2021/10/24 16:42:18;;;;;;;0.60;0.50;;;21.60;34.40;21.70;94478.00;;;;10467979;28;45553;-62
2021/10/24 16:47:19;;;;;;;1.30;0.68;;;21.60;34.50;21.70;94486.00;;;;10476506;28;47230;-62
2021/10/24 16:52:19;;;;;;;1.30;0.70;;;21.60;34.50;21.60;94486.00;;;;10437764;28;46191;-61
2021/10/24 16:57:20;;;;;;;0.95;0.70;;;21.60;34.50;21.60;94474.00;;;;10437457;28;45187;-62
2021/10/24 17:02:21;;;;;;;0.75;0.60;;;21.60;34.40;21.60;94485.00;;;;10435003;28;47142;-61
2021/10/24 17:07:22;;;;;;;0.93;0.80;;;21.60;34.50;21.60;94479.00;;;;10410899;28;46976;-62
2021/10/24 17:12:24;;;;;;;1.10;0.70;;;21.60;34.50;21.60;94476.00;;;;10397033;28;45208;-61
2021/10/24 17:17:24;;;;;;;1.25;0.80;;;21.60;34.50;21.70;94487.00;;;;10395421;28;45653;-62
2021/10/24 17:22:25;;;;;;;1.25;0.90;;;21.60;34.50;21.60;94490.00;;;;10395129;28;47682;-62
2021/10/24 17:27:26;;;;;;;1.15;0.88;;;21.60;34.50;21.60;94490.00;;;;10394823;28;47408;-63
2021/10/24 17:32:27;;;;;;;1.50;0.93;;;21.60;34.50;21.60;94494.00;;;;10395719;28;46570;-61
2021/10/24 17:37:28;;;;;;;1.17;0.90;;;21.60;34.50;21.60;94489.00;;;;10395346;28;45382;-62
2021/10/24 17:42:29;;;;;;;2.25;0.98;;;21.60;34.40;21.70;94474.00;;;;10470192;28;45218;-61
2021/10/24 17:47:30;;;;;;;1.10;0.90;;;21.60;34.40;21.80;94496.00;;;;10471803;28;46087;-61
2021/10/24 17:52:31;;;;;;;1.08;0.90;;;21.60;34.50;21.80;94497.00;;;;10436181;28;46395;-62
2021/10/24 17:57:31;;;;;;;2.83;1.02;;;21.60;34.50;21.90;94490.00;;;;10433535;28;46374;-61
2021/10/24 18:02:33;;;;;;;0.80;0.75;;;21.70;34.50;21.90;94470.00;;;;10436222;28;46230;-63
2021/10/24 18:07:36;;;;;;;0.98;0.88;;;21.70;34.60;21.90;94492.00;;;;10436259;28;46131;-61
2021/10/24 18:12:39;;;;;;;1.85;1.15;;;21.70;34.60;22.00;94498.00;;;;10435259;28;45432;-62
2021/10/24 18:17:40;;;;;;;1.33;1.00;;;21.80;34.70;22.00;94492.00;;;;10434359;28;46216;-61
2021/10/24 18:22:42;;;;;;;1.73;1.00;;;21.80;34.70;22.00;94496.00;;;;10434307;28;47155;-61
2021/10/24 18:27:43;;;;;;;1.23;0.85;;;21.80;34.80;22.00;94481.00;;;;10434688;28;45446;-61
2021/10/24 18:32:44;;;;;;;1.17;0.90;;;21.80;34.70;22.00;94484.00;;;;10433126;28;45380;-62
2021/10/24 18:37:48;;;;;;;1.00;0.77;;;21.80;34.80;22.10;94482.00;;;;10429581;28;45302;-61
2021/10/24 18:42:49;;;;;;;0.95;0.73;;;21.90;34.80;22.10;94485.00;;;;10471470;28;47263;-63
2021/10/24 18:47:49;;;;;;;0.95;0.80;;;21.90;34.80;22.10;94485.00;;;;10468212;28;45246;-61
2021/10/24 18:52:50;;;;;;;1.25;0.80;;;21.90;34.80;22.10;94472.00;;;;10434736;28;45621;-61
2021/10/24 18:57:51;;;;;;;0.82;0.70;;;21.90;34.80;22.10;94465.00;;;;10416183;28;47530;-61
2021/10/24 19:02:51;;;;;;;0.80;0.70;;;22.00;34.90;22.10;94454.00;;;;10434424;28;45265;-61
2021/10/24 19:07:52;;;;;;;1.55;0.70;;;21.90;34.80;22.10;94461.00;;;;10434722;28;45612;-61
2021/10/24 19:12:52;;;;;;;0.63;0.63;;;22.00;34.90;22.10;94458.00;;;;10432689;28;45282;-61
2021/10/24 19:17:53;;;;;;;0.90;0.70;;;21.90;34.90;22.10;94450.00;;;;10432741;28;47175;-61
2021/10/24 19:22:54;;;;;;;1.00;0.65;;;22.00;34.90;22.10;94444.00;;;;10434039;28;45444;-61
2021/10/24 19:27:55;;;;;;;1.33;0.65;;;21.90;34.90;22.10;94466.00;;;;10433429;28;46709;-63
2021/10/24 19:32:55;;;;;;;0.95;0.70;;;21.90;34.90;22.10;94454.00;;;;10449604;28;45869;-61
2021/10/24 19:37:56;;;;;;;0.73;0.60;;;22.00;35.00;22.10;94444.00;;;;10434312;28;46225;-63
2021/10/24 19:42:57;;;;;;;0.73;0.60;;;22.00;34.90;22.10;94450.00;;;;10433903;28;45136;-63
2021/10/24 19:47:57;;;;;;;0.60;0.55;;;22.00;34.90;22.10;94439.00;;;;10432644;28;45175;-61
2021/10/24 19:52:58;;;;;;;0.98;0.73;;;22.00;34.90;22.10;94448.00;;;;10432459;28;45369;-61
2021/10/24 19:58:01;;;;;;;0.77;0.60;;;22.00;34.90;22.20;94449.00;;;;10432606;28;45610;-63
2021/10/24 20:03:02;;;;;;;0.70;0.60;;;22.00;34.90;22.20;94451.00;;;;10449308;28;46268;-63
2021/10/24 20:08:04;;;;;;;0.50;0.50;;;22.00;35.00;22.20;94451.00;;;;10430492;28;45827;-61
2021/10/24 20:13:05;;;;;;;3.42;0.70;;;22.00;34.90;22.00;94440.00;;;;10434098;28;47666;-63
2021/10/24 20:18:06;;;;;;;3.25;0.77;;;22.00;34.60;21.90;94458.00;;;;10441045;28;46562;-62
2021/10/24 20:23:07;;;;;;;1.27;0.70;;;21.90;34.40;21.80;94455.00;;;;10439844;28;45099;-62
2021/10/24 20:28:07;;;;;;;1.27;0.80;;;21.90;34.30;21.80;94453.00;;;;10438720;28;45317;-62
2021/10/24 20:33:10;;;;;;;0.82;0.65;;;21.80;34.20;21.80;94457.00;;;;10452486;22;45414;-62
2021/10/24 20:38:10;;;;;;;1.42;0.70;;;21.80;34.80;21.80;94463.00;;;;10428889;28;45590;-59
2021/10/24 20:43:11;;;;;;;1.63;0.80;;;21.80;33.80;21.80;94470.00;;;;10439096;28;45363;-60
2021/10/24 20:48:12;;;;;;;0.90;0.70;;;21.80;33.90;21.80;94473.00;;;;10438025;28;46181;-59
2021/10/24 20:53:13;;;;;;;1.23;0.75;;;21.80;33.60;21.80;94469.00;;;;10421132;28;47076;-59
2021/10/24 20:58:14;;;;;;;1.00;0.80;;;21.80;33.80;21.80;94467.00;;;;10437408;28;45428;-59
2021/10/24 21:03:14;;;;;;;1.08;0.70;;;21.70;33.60;21.80;94457.00;;;;10438655;28;45356;-59
2021/10/24 21:08:15;;;;;;;0.77;0.60;;;21.70;33.60;21.70;94451.00;;;;10438497;28;45646;-59
2021/10/24 21:13:16;;;;;;;1.27;0.80;;;21.70;33.30;21.70;94459.00;;;;10437515;28;45231;-60
2021/10/24 21:18:16;;;;;;;0.70;0.60;;;21.70;33.20;21.70;94447.00;;;;10436707;28;46683;-59
2021/10/24 21:23:18;;;;;;;0.60;0.60;;;21.60;33.40;21.70;94462.00;;;;10436723;28;47179;-60
2021/10/24 21:28:18;;;;;;;1.02;0.82;;;21.60;33.30;21.70;94443.00;;;;10437686;28;46416;-59
2021/10/24 21:33:19;;;;;;;0.80;0.60;;;21.60;33.40;21.70;94460.00;;;;10436773;28;45196;-59
2021/10/24 21:38:20;;;;;;;1.48;0.60;;;21.60;33.20;21.70;94456.00;;;;10436737;28;46269;-59
2021/10/24 21:43:21;;;;;;;1.63;0.73;;;21.60;33.70;21.60;94453.00;;;;10436896;28;45980;-59
2021/10/24 21:48:21;;;;;;;1.02;0.70;;;21.60;33.40;21.60;94447.00;;;;10436095;28;46695;-59
2021/10/24 21:53:22;;;;;;;0.70;0.60;;;21.50;33.40;21.60;94439.00;;;;10436534;28;45189;-59
2021/10/24 21:58:23;;;;;;;1.13;0.60;;;21.50;33.40;21.60;94441.00;;;;10435666;28;46705;-59
2021/10/24 22:03:23;;;;;;;2.05;0.80;;;21.50;33.40;21.50;94436.00;;;;10436116;28;46967;-59
2021/10/24 22:08:24;;;;;;;1.00;0.70;;;21.50;33.40;21.50;94442.00;;;;10437370;28;46711;-59
2021/10/24 22:13:25;;;;;;;1.42;0.70;;;21.40;33.40;21.50;94438.00;;;;10435709;28;46217;-59
2021/10/24 22:18:26;;;;;;;1.20;0.70;;;21.40;33.40;21.50;94451.00;;;;10435595;28;45562;-59